createdAt,value
2022-10-17T00:00:12.453Z,15.55
2022-10-17T00:03:16.822Z,16.50
2022-10-17T00:06:20.055Z,15.13
2022-10-17T00:09:23.117Z,14.87
2022-10-17T00:12:26.489Z,15.10
2022-10-17T00:15:31.286Z,15.15
2022-10-17T00:18:34.416Z,15.13
2022-10-17T00:21:38.779Z,15.15
2022-10-17T00:24:42.452Z,15.33
2022-10-17T00:27:46.591Z,15.83
2022-10-17T00:31:17.920Z,15.48
2022-10-17T00:34:22.878Z,14.15
2022-10-17T00:37:27.929Z,14.75
2022-10-17T00:40:31.127Z,14.27
2022-10-17T00:43:59.651Z,14.27
2022-10-17T00:47:06.115Z,13.75
2022-10-17T00:50:13.143Z,13.93
2022-10-17T00:53:18.369Z,14.65
2022-10-17T00:56:21.504Z,14.17
2022-10-17T00:59:25.978Z,14.07
2022-10-17T01:02:30.406Z,14.43
2022-10-17T01:05:35.741Z,13.80
2022-10-17T01:08:39.706Z,13.40
2022-10-17T01:12:13.640Z,14.40
2022-10-17T01:15:32.736Z,14.93
2022-10-17T01:19:11.705Z,13.93
2022-10-17T01:22:27.972Z,14.63
2022-10-17T01:25:49.508Z,13.52
2022-10-17T01:29:11.761Z,13.23
2022-10-17T01:32:36.592Z,14.13
2022-10-17T01:35:48.069Z,14.55
2022-10-17T01:39:01.017Z,14.82
2022-10-17T01:42:13.240Z,15.20
2022-10-17T01:45:25.805Z,16.10
2022-10-17T01:48:35.724Z,14.80
2022-10-17T01:51:43.610Z,14.27
2022-10-17T01:54:50.855Z,13.82
2022-10-17T01:57:58.394Z,14.18
2022-10-17T02:01:05.687Z,13.83
2022-10-17T02:04:11.766Z,14.27
2022-10-17T02:07:14.915Z,13.82
2022-10-17T02:10:43.423Z,13.30
2022-10-17T02:13:53.763Z,13.82
2022-10-17T02:17:11.845Z,14.63
2022-10-17T02:20:38.279Z,16.53
2022-10-17T02:23:52.382Z,16.25
2022-10-17T02:27:31.531Z,14.65
2022-10-17T02:30:44.682Z,14.55
2022-10-17T02:34:03.528Z,14.37
2022-10-17T02:37:15.699Z,15.07
2022-10-17T02:40:24.067Z,13.80
2022-10-17T02:43:28.740Z,14.87
2022-10-17T02:46:37.155Z,13.15
2022-10-17T02:49:47.415Z,14.10
2022-10-17T02:53:01.273Z,14.23
2022-10-17T02:56:14.475Z,13.10
2022-10-17T02:59:21.771Z,13.23
2022-10-17T03:02:25.729Z,13.90
2022-10-17T03:05:30.866Z,12.93
2022-10-17T03:08:35.339Z,13.03
2022-10-17T03:11:40.469Z,13.23
2022-10-17T03:14:44.563Z,12.35
2022-10-17T03:17:49.736Z,12.60
2022-10-17T03:20:52.756Z,13.17
2022-10-17T03:23:56.805Z,12.73
2022-10-17T03:27:01.166Z,12.90
2022-10-17T03:30:07.262Z,12.55
2022-10-17T03:33:12.538Z,11.38
2022-10-17T03:36:18.736Z,11.27
2022-10-17T03:39:22.355Z,12.40
2022-10-17T03:42:25.592Z,12.25
2022-10-17T03:45:28.868Z,12.55
2022-10-17T03:48:32.573Z,12.70
2022-10-17T03:51:36.123Z,13.47
2022-10-17T03:54:39.720Z,13.50
2022-10-17T03:57:45.422Z,11.98
2022-10-17T04:00:49.401Z,12.10
2022-10-17T04:03:55.015Z,12.20
2022-10-17T04:06:57.748Z,12.57
2022-10-17T04:10:01.954Z,12.23
2022-10-17T04:13:06.922Z,12.05
2022-10-17T04:16:14.306Z,11.77
2022-10-17T04:19:40.032Z,11.73
2022-10-17T04:22:43.763Z,12.33
2022-10-17T04:25:48.726Z,11.60
2022-10-17T04:28:59.193Z,11.60
2022-10-17T04:32:02.521Z,12.00
2022-10-17T04:35:10.252Z,11.32
2022-10-17T04:38:19.528Z,11.87
2022-10-17T04:41:26.769Z,11.53
2022-10-17T04:44:34.228Z,16.92
2022-10-17T04:47:37.687Z,16.90
2022-10-17T04:50:42.706Z,15.23
2022-10-17T04:53:55.050Z,15.57
2022-10-17T04:56:58.426Z,12.30
2022-10-17T05:00:03.350Z,13.20
2022-10-17T05:03:15.271Z,12.82
2022-10-17T05:06:25.272Z,12.57
2022-10-17T05:09:31.920Z,12.50
2022-10-17T05:12:35.522Z,12.27
2022-10-17T05:15:47.476Z,12.15
2022-10-17T05:18:57.781Z,14.48
2022-10-17T05:22:08.276Z,12.48
2022-10-17T05:25:14.326Z,12.90
2022-10-17T05:28:17.784Z,16.00
2022-10-17T05:31:22.240Z,14.38
2022-10-17T05:34:25.372Z,14.40
2022-10-17T05:37:30.594Z,12.77
2022-10-17T05:40:39.479Z,13.67
2022-10-17T05:43:44.841Z,11.87
2022-10-17T05:46:56.298Z,14.25
2022-10-17T05:50:00.179Z,15.85
2022-10-17T05:53:06.450Z,17.27
2022-10-17T05:56:15.255Z,13.30
2022-10-17T05:59:18.346Z,13.70
2022-10-17T06:02:22.823Z,12.65
2022-10-17T06:05:26.269Z,13.45
2022-10-17T06:08:29.670Z,13.62
2022-10-17T06:11:33.136Z,16.30
2022-10-17T06:14:40.396Z,16.83
2022-10-17T06:17:44.271Z,16.37
2022-10-17T06:20:48.062Z,15.57
2022-10-17T06:23:54.432Z,15.10
2022-10-17T06:26:58.091Z,13.67
2022-10-17T06:30:04.242Z,12.97
2022-10-17T06:34:26.226Z,12.20
2022-10-17T06:38:50.461Z,11.82
2022-10-17T06:42:11.578Z,12.20
2022-10-17T06:45:15.124Z,11.50
2022-10-17T06:48:35.117Z,12.00
2022-10-17T06:51:42.270Z,11.88
2022-10-17T06:54:50.201Z,10.82
2022-10-17T06:58:06.282Z,12.55
2022-10-17T07:01:21.503Z,12.13
2022-10-17T07:04:39.449Z,11.63
2022-10-17T07:09:11.011Z,10.93
2022-10-17T07:16:39.349Z,11.82
2022-10-17T07:19:44.324Z,11.90
2022-10-17T07:22:47.543Z,10.80
2022-10-17T07:25:51.735Z,12.10
2022-10-17T07:29:02.002Z,10.52
2022-10-17T07:32:08.762Z,10.77
2022-10-17T07:35:14.254Z,9.73
2022-10-17T07:38:19.075Z,9.97
2022-10-17T07:41:23.249Z,9.55
2022-10-17T07:44:29.521Z,10.07
2022-10-17T07:47:39.621Z,9.48
2022-10-17T07:50:46.213Z,9.90
2022-10-17T07:53:50.475Z,9.73
2022-10-17T07:56:56.664Z,9.02
2022-10-17T08:00:07.731Z,9.23
2022-10-17T08:03:22.822Z,10.40
2022-10-17T08:06:28.729Z,9.33
2022-10-17T08:09:33.281Z,10.37
2022-10-17T08:12:38.333Z,9.48
2022-10-17T08:15:42.906Z,9.52
2022-10-17T08:18:46.959Z,8.73
2022-10-17T08:21:54.523Z,10.00
2022-10-17T08:25:10.927Z,8.77
2022-10-17T08:28:41.808Z,9.27
2022-10-17T08:31:47.793Z,8.63
2022-10-17T08:38:51.648Z,9.77
2022-10-17T08:41:56.184Z,9.83
2022-10-17T08:45:08.388Z,9.90
2022-10-17T08:48:16.635Z,9.60
2022-10-17T08:51:30.259Z,9.63
2022-10-17T08:54:48.932Z,9.03
2022-10-17T08:57:53.752Z,9.00
2022-10-17T09:01:03.693Z,8.15
2022-10-17T09:04:28.707Z,8.48
2022-10-17T09:07:57.596Z,7.93
2022-10-17T09:11:16.988Z,8.23
2022-10-17T09:14:43.465Z,8.20
2022-10-17T09:18:12.280Z,8.23
2022-10-17T09:21:23.539Z,8.55
2022-10-17T09:24:36.913Z,7.93
2022-10-17T09:27:46.268Z,8.20
2022-10-17T09:31:07.958Z,8.97
2022-10-17T09:34:13.484Z,8.38
2022-10-17T09:37:17.770Z,8.82
2022-10-17T09:40:31.876Z,8.20
2022-10-17T09:43:34.880Z,8.43
2022-10-17T09:46:39.048Z,7.67
2022-10-17T09:49:46.650Z,7.45
2022-10-17T09:52:50.901Z,8.10
2022-10-17T09:55:59.478Z,8.18
2022-10-17T09:59:40.064Z,7.50
2022-10-17T10:02:43.565Z,7.50
2022-10-17T10:05:59.988Z,7.97
2022-10-17T10:09:05.584Z,7.50
2022-10-17T10:12:22.643Z,7.30
2022-10-17T10:15:38.877Z,6.90
2022-10-17T10:18:43.319Z,6.97
2022-10-17T10:21:59.820Z,6.40
2022-10-17T10:25:18.442Z,7.10
2022-10-17T10:28:28.352Z,6.60
2022-10-17T10:31:40.381Z,6.63
2022-10-17T10:35:04.283Z,6.13
2022-10-17T10:38:18.010Z,5.95
2022-10-17T10:41:21.814Z,6.85
2022-10-17T10:44:30.346Z,6.43
2022-10-17T10:47:35.658Z,5.63
2022-10-17T10:50:45.601Z,5.53
2022-10-17T10:54:05.232Z,5.85
2022-10-17T10:57:20.971Z,5.32
2022-10-17T11:00:28.116Z,4.85
2022-10-17T11:03:42.015Z,5.03
2022-10-17T11:06:51.055Z,5.10
2022-10-17T11:09:55.458Z,5.03
2022-10-17T11:13:30.816Z,5.70
2022-10-17T11:16:50.358Z,5.15
2022-10-17T11:20:20.479Z,5.00
2022-10-17T11:23:48.597Z,4.23
2022-10-17T11:27:12.292Z,4.55
2022-10-17T11:30:18.354Z,4.37
2022-10-17T11:33:29.212Z,4.07
2022-10-17T11:36:36.981Z,4.00
2022-10-17T11:40:17.209Z,4.23
2022-10-17T11:43:38.373Z,3.87
2022-10-17T11:46:46.384Z,4.87
2022-10-17T11:49:57.489Z,4.03
2022-10-17T11:53:17.577Z,4.20
2022-10-17T11:56:42.772Z,4.70
2022-10-17T12:00:21.301Z,4.07
2022-10-17T12:03:57.050Z,4.78
2022-10-17T12:07:26.367Z,3.90
2022-10-17T12:10:53.912Z,3.97
2022-10-17T12:13:58.947Z,4.10
2022-10-17T12:17:43.676Z,4.40
2022-10-17T12:21:00.306Z,4.45
2022-10-17T12:24:05.772Z,4.05
2022-10-17T12:27:30.359Z,3.97
2022-10-17T12:30:49.101Z,3.83
2022-10-17T12:34:09.544Z,3.70
2022-10-17T12:38:24.443Z,4.75
2022-10-17T12:41:45.326Z,4.00
2022-10-17T12:44:52.381Z,4.23
2022-10-17T12:47:56.324Z,3.97
2022-10-17T12:51:34.862Z,3.95
2022-10-17T15:36:43.292Z,6.00
2022-10-17T15:39:58.102Z,5.62
2022-10-17T15:43:04.060Z,6.07
2022-10-17T15:46:23.091Z,6.20
2022-10-17T15:49:28.087Z,6.32
2022-10-17T15:52:37.082Z,6.57
2022-10-17T15:55:49.207Z,6.95
2022-10-17T15:59:04.061Z,7.30
2022-10-17T16:02:19.103Z,7.05
2022-10-17T16:05:28.193Z,7.78
2022-10-17T16:08:33.183Z,11.50
2022-10-17T16:11:42.405Z,11.30
2022-10-17T16:14:50.081Z,11.93
2022-10-17T16:18:01.634Z,10.73
2022-10-17T16:21:18.096Z,12.25
2022-10-17T16:24:25.295Z,26.30
2022-10-17T16:27:38.273Z,24.65
2022-10-17T16:30:56.255Z,20.95
2022-10-17T16:34:06.728Z,19.77
2022-10-17T16:37:11.142Z,17.35
2022-10-17T16:40:24.954Z,14.37
2022-10-17T16:43:38.142Z,16.73
2022-10-17T16:47:19.094Z,18.55
2022-10-17T16:50:24.685Z,18.45
2022-10-17T16:53:44.082Z,21.50
2022-10-17T16:56:58.188Z,22.27
2022-10-17T17:00:04.013Z,21.62
2022-10-17T17:03:23.088Z,23.77
2022-10-17T17:06:29.821Z,22.35
2022-10-17T17:09:35.305Z,23.17
2022-10-17T17:12:43.895Z,22.10
2022-10-17T17:15:54.056Z,19.90
2022-10-17T17:19:01.299Z,19.87
2022-10-17T17:22:15.107Z,19.45
2022-10-17T17:25:26.980Z,18.17
2022-10-17T17:28:37.385Z,17.60
2022-10-17T17:31:46.185Z,17.00
2022-10-17T17:34:51.620Z,15.45
2022-10-17T17:37:57.368Z,16.10
2022-10-17T17:41:10.323Z,15.27
2022-10-17T17:44:16.778Z,15.03
2022-10-17T17:47:25.073Z,14.27
2022-10-17T17:50:37.509Z,14.15
2022-10-17T17:53:57.915Z,13.82
2022-10-17T17:57:02.561Z,13.45
2022-10-17T18:00:14.225Z,12.40
2022-10-17T18:03:40.312Z,11.55
2022-10-17T18:07:02.081Z,11.40
2022-10-17T18:10:21.993Z,12.30
2022-10-17T18:13:45.299Z,13.05
2022-10-17T18:17:10.269Z,12.10
2022-10-17T18:20:16.411Z,11.73
2022-10-17T18:23:26.653Z,12.70
2022-10-17T18:26:38.163Z,11.93
2022-10-17T18:29:48.091Z,13.00
2022-10-17T18:33:08.045Z,15.07
2022-10-17T18:36:13.785Z,15.60
2022-10-17T18:39:25.133Z,15.80
2022-10-17T18:42:41.124Z,16.08
2022-10-17T18:45:57.170Z,16.05
2022-10-17T18:49:19.194Z,13.80
2022-10-17T18:52:22.824Z,13.95
2022-10-17T18:55:32.012Z,13.68
2022-10-17T18:58:50.554Z,14.00
2022-10-17T19:01:58.165Z,14.90
2022-10-17T19:05:05.071Z,14.50
2022-10-17T19:08:08.622Z,13.05
2022-10-17T19:11:17.198Z,13.88
2022-10-17T19:14:22.316Z,12.37
2022-10-17T19:17:26.246Z,12.77
2022-10-17T19:20:34.284Z,12.33
2022-10-17T19:23:54.089Z,12.52
2022-10-17T19:27:09.032Z,14.48
2022-10-17T19:30:26.509Z,12.77
2022-10-17T19:33:37.825Z,14.15
2022-10-17T19:36:42.031Z,14.20
2022-10-17T19:39:48.232Z,14.63
2022-10-17T19:42:53.067Z,14.77
2022-10-17T19:46:02.597Z,14.55
2022-10-17T19:49:18.370Z,15.82
2022-10-17T19:52:23.215Z,15.87
2022-10-17T19:55:26.466Z,17.77
2022-10-17T19:58:44.385Z,17.37
2022-10-17T20:01:51.327Z,16.87
2022-10-17T20:05:13.787Z,18.35
2022-10-17T20:08:20.169Z,18.93
2022-10-17T20:11:29.457Z,19.77
2022-10-17T20:14:41.037Z,20.27
2022-10-17T20:17:46.101Z,19.45
2022-10-17T20:20:49.876Z,20.05
2022-10-17T20:23:56.076Z,18.70
2022-10-17T20:27:03.150Z,18.92
2022-10-17T20:30:08.320Z,19.00
2022-10-17T20:33:31.718Z,19.10
2022-10-17T20:36:39.080Z,19.27
2022-10-17T20:39:42.950Z,19.13
2022-10-17T20:42:46.844Z,19.75
2022-10-17T20:45:51.138Z,19.50
2022-10-17T20:49:12.572Z,20.25
2022-10-17T20:53:31.493Z,19.77
2022-10-17T20:56:34.320Z,23.37
2022-10-17T20:59:38.881Z,22.10
2022-10-17T21:02:41.901Z,21.27
2022-10-17T21:05:45.652Z,19.95
2022-10-17T21:08:57.245Z,20.60
2022-10-17T21:12:02.751Z,19.47
2022-10-17T21:15:09.974Z,20.05
2022-10-17T21:18:12.771Z,21.10
2022-10-17T21:21:29.614Z,19.33
2022-10-17T21:24:32.259Z,19.35
2022-10-17T21:27:35.790Z,18.80
2022-10-17T21:30:39.557Z,18.95
2022-10-17T21:33:52.846Z,19.40
2022-10-17T21:36:55.543Z,18.95
2022-10-17T21:39:59.575Z,18.95
2022-10-17T21:43:03.192Z,18.80
2022-10-17T21:46:18.267Z,18.30
2022-10-17T21:49:24.664Z,18.77
2022-10-17T21:52:28.209Z,19.12
2022-10-17T21:55:31.489Z,20.15
2022-10-17T21:58:34.504Z,17.83
2022-10-17T22:01:43.120Z,17.92
2022-10-17T22:04:46.265Z,17.83
2022-10-17T22:07:49.023Z,18.50
2022-10-17T22:10:52.666Z,19.10
2022-10-17T22:14:00.547Z,19.00
2022-10-17T22:17:06.187Z,18.95
2022-10-17T22:20:14.005Z,19.95
2022-10-17T22:23:19.114Z,18.80
2022-10-17T22:26:22.093Z,19.00
2022-10-17T22:29:26.323Z,19.07
2022-10-17T22:32:28.984Z,19.33
2022-10-17T22:35:32.007Z,20.50
2022-10-17T22:38:35.985Z,20.05
2022-10-17T22:41:39.607Z,20.70
2022-10-17T22:44:42.352Z,20.60
2022-10-17T22:47:45.272Z,21.20
2022-10-17T22:50:50.443Z,23.87
2022-10-17T22:53:53.465Z,23.75
2022-10-17T22:56:56.724Z,25.27
2022-10-17T23:00:00.436Z,24.63
2022-10-17T23:03:03.592Z,24.98
2022-10-17T23:06:06.844Z,24.02
2022-10-17T23:09:13.194Z,21.90
2022-10-17T23:12:16.890Z,22.15
2022-10-17T23:15:19.534Z,20.13
2022-10-17T23:18:23.628Z,20.98
2022-10-17T23:21:28.120Z,22.13
2022-10-17T23:24:33.736Z,20.62
2022-10-17T23:27:36.367Z,21.20
2022-10-17T23:30:40.699Z,20.10
2022-10-17T23:33:47.430Z,20.75
2022-10-17T23:36:56.774Z,22.27
2022-10-17T23:40:01.255Z,20.33
2022-10-17T23:43:06.310Z,21.75
2022-10-17T23:46:11.556Z,21.00
2022-10-17T23:49:14.988Z,21.37
2022-10-17T23:52:17.862Z,21.52
2022-10-17T23:55:21.201Z,23.15
2022-10-17T23:58:24.194Z,22.98
